createdAt,value
2022-09-22T00:04:08.543Z,102039.53
2022-09-22T00:11:17.053Z,102035.25
2022-09-22T00:18:18.623Z,102032.91
2022-09-22T00:25:20.407Z,102034.19
2022-09-22T00:32:22.044Z,102029.19
2022-09-22T00:39:23.671Z,102023.50
2022-09-22T00:46:26.611Z,102021.31
2022-09-22T00:53:28.217Z,102020.81
2022-09-22T01:00:29.846Z,102015.00
2022-09-22T01:07:31.561Z,102020.78
2022-09-22T01:14:56.815Z,102023.75
2022-09-22T01:22:53.624Z,102016.72
2022-09-22T01:30:10.057Z,102024.34
2022-09-22T01:37:23.067Z,102011.03
2022-09-22T01:44:27.148Z,102010.28
2022-09-22T01:51:39.497Z,102015.16
2022-09-22T01:58:44.553Z,102012.56
2022-09-22T02:05:52.345Z,102004.53
2022-09-22T02:12:55.389Z,102005.78
2022-09-22T02:19:56.917Z,102015.06
2022-09-22T02:27:00.302Z,102014.53
2022-09-22T02:34:01.916Z,102018.28
2022-09-22T02:41:10.926Z,102017.72
2022-09-22T02:48:15.486Z,102018.09
2022-09-22T02:55:17.088Z,102014.00
2022-09-22T03:02:18.622Z,102006.09
2022-09-22T03:09:20.158Z,102014.59
2022-09-22T03:16:21.768Z,102011.38
2022-09-22T03:23:23.363Z,102011.72
2022-09-22T03:30:25.023Z,102011.06
2022-09-22T03:37:26.559Z,102009.38
2022-09-22T03:44:28.123Z,102011.41
2022-09-22T03:51:30.425Z,102007.19
2022-09-22T03:58:31.991Z,102004.66
2022-09-22T04:05:33.590Z,101997.75
2022-09-22T04:12:35.170Z,102002.41
2022-09-22T04:19:36.714Z,101996.03
2022-09-22T04:26:44.477Z,101990.69
2022-09-22T04:33:58.107Z,102004.25
2022-09-22T04:41:01.310Z,102007.13
2022-09-22T04:48:02.877Z,102006.50
2022-09-22T04:55:04.750Z,102004.00
2022-09-22T05:02:06.349Z,102012.22
2022-09-22T05:09:07.919Z,102009.72
2022-09-22T05:16:09.533Z,102019.75
2022-09-22T05:23:11.649Z,102021.63
2022-09-22T05:30:13.498Z,102015.44
2022-09-22T05:37:15.059Z,102013.59
2022-09-22T05:44:16.873Z,102021.63
2022-09-22T05:51:18.431Z,102022.44
2022-09-22T05:58:20.483Z,102030.44
2022-09-22T06:05:22.073Z,102036.44
2022-09-22T06:12:23.688Z,102037.91
2022-09-22T06:19:26.038Z,102034.78
2022-09-22T06:26:27.739Z,102034.22
2022-09-22T06:33:29.376Z,102036.31
2022-09-22T06:40:32.222Z,102037.78
2022-09-22T06:47:33.850Z,102036.34
2022-09-22T06:54:35.393Z,102028.53
2022-09-22T07:01:37.311Z,102030.63
2022-09-22T07:08:39.512Z,102028.66
2022-09-22T07:15:41.067Z,102035.56
2022-09-22T07:22:42.613Z,102032.09
2022-09-22T07:29:47.721Z,102023.59
2022-09-22T07:36:49.321Z,102025.88
2022-09-22T07:43:52.691Z,102017.47
2022-09-22T07:50:54.789Z,102022.31
2022-09-22T07:57:59.996Z,102021.56
2022-09-22T08:05:03.239Z,102030.19
2022-09-22T08:12:05.227Z,102031.22
2022-09-22T08:19:12.429Z,102023.81
2022-09-22T08:26:13.996Z,102024.41
2022-09-22T08:33:15.610Z,102023.63
2022-09-22T08:40:21.112Z,102025.56
2022-09-22T08:47:44.807Z,102030.44
2022-09-22T08:54:46.389Z,102025.00
2022-09-22T09:02:11.260Z,102015.66
2022-09-22T09:09:33.840Z,102007.44
2022-09-22T09:17:06.707Z,102010.72
2022-09-22T09:31:38.255Z,102008.41
2022-09-22T09:38:44.553Z,101998.38
2022-09-22T09:46:24.691Z,101995.41
2022-09-22T09:53:40.620Z,101985.91
2022-09-22T10:00:59.157Z,101984.41
2022-09-22T10:08:02.063Z,101981.75
2022-09-22T10:15:03.834Z,101983.09
2022-09-22T10:22:25.095Z,101991.44
2022-09-22T10:29:27.751Z,101985.91
2022-09-22T10:36:30.693Z,101998.00
2022-09-22T10:43:47.318Z,101987.84
2022-09-22T10:51:22.788Z,101974.28
2022-09-22T10:58:27.246Z,101980.59
2022-09-22T11:06:16.800Z,101974.91
2022-09-22T11:13:27.574Z,101976.19
2022-09-22T11:20:41.858Z,101971.31
2022-09-22T11:28:04.598Z,101961.66
2022-09-22T11:35:31.026Z,101958.66
2022-09-22T11:42:38.609Z,101932.63
2022-09-22T11:50:00.442Z,101915.88
2022-09-22T11:57:06.652Z,101918.34
2022-09-22T12:04:26.907Z,101913.13
2022-09-22T12:11:28.454Z,101906.19
2022-09-22T12:18:35.171Z,101882.44
2022-09-22T12:25:54.318Z,101879.94
2022-09-22T12:32:56.330Z,101879.47
2022-09-22T12:40:24.132Z,101869.25
2022-09-22T12:47:34.348Z,101855.38
2022-09-22T12:54:37.207Z,101868.16
2022-09-22T13:01:39.279Z,101865.50
2022-09-22T13:08:40.757Z,101861.53
2022-09-22T13:15:54.143Z,101862.59
2022-09-22T13:23:05.053Z,101868.56
2022-09-22T13:30:12.512Z,101861.41
2022-09-22T13:37:16.655Z,101850.97
2022-09-22T13:44:21.670Z,101838.34
2022-09-22T13:51:24.899Z,101831.31
2022-09-22T13:58:41.084Z,101821.03
2022-09-22T14:05:53.225Z,101811.97
2022-09-22T14:12:55.481Z,101813.38
2022-09-22T14:20:00.755Z,101815.56
2022-09-22T14:27:06.461Z,101809.06
2022-09-22T14:34:08.801Z,101803.38
2022-09-22T14:41:27.350Z,101799.72
2022-09-22T14:48:33.269Z,101817.22
2022-09-22T14:55:42.931Z,101803.72
2022-09-22T15:02:49.468Z,101803.75
2022-09-22T15:09:52.897Z,101809.25
2022-09-22T15:17:14.423Z,101809.84
2022-09-22T15:24:17.825Z,101794.88
2022-09-22T15:31:24.575Z,101798.34
2022-09-22T15:38:27.470Z,101793.38
2022-09-22T15:45:30.081Z,101790.84
2022-09-22T15:52:31.647Z,101793.81
2022-09-22T15:59:33.406Z,101788.84
2022-09-22T16:06:34.962Z,101787.91
2022-09-22T16:13:36.544Z,101783.56
2022-09-22T16:20:38.165Z,101783.03
2022-09-22T16:27:39.698Z,101778.06
2022-09-22T16:34:41.270Z,101783.03
2022-09-22T16:41:45.793Z,101773.53
2022-09-22T16:48:47.345Z,101778.06
2022-09-22T16:55:48.892Z,101782.22
2022-09-22T17:02:50.450Z,101778.38
2022-09-22T17:09:52.052Z,101777.66
2022-09-22T17:16:55.289Z,101784.94
2022-09-22T17:24:00.460Z,101778.88
2022-09-22T17:31:02.585Z,101783.38
2022-09-22T17:38:04.130Z,101780.78
2022-09-22T17:45:07.702Z,101776.03
2022-09-22T17:52:27.950Z,101773.81
2022-09-22T17:59:31.094Z,101779.22
2022-09-22T18:06:32.636Z,101776.41
2022-09-22T18:13:39.027Z,101787.81
2022-09-22T18:20:40.843Z,101790.41
2022-09-22T18:27:42.404Z,101793.25
2022-09-22T18:34:44.023Z,101790.63
2022-09-22T18:41:45.608Z,101783.66
2022-09-22T18:48:57.333Z,101782.94
2022-09-22T18:56:08.524Z,101788.34
2022-09-22T19:03:10.080Z,101782.38
2022-09-22T19:10:13.312Z,101793.13
2022-09-22T19:17:17.190Z,101788.69
2022-09-22T19:24:18.919Z,101800.53
2022-09-22T19:31:20.567Z,101804.66
2022-09-22T19:38:22.200Z,101796.38
2022-09-22T19:45:24.939Z,101796.34
2022-09-22T19:52:26.458Z,101790.66
2022-09-22T19:59:28.055Z,101787.69
2022-09-22T20:06:29.603Z,101781.34
2022-09-22T20:13:49.542Z,101788.22
2022-09-22T20:20:51.542Z,101780.72
2022-09-22T20:27:53.110Z,101782.28
2022-09-22T20:34:55.375Z,101773.06
2022-09-22T20:41:56.933Z,101783.78
2022-09-22T20:48:58.710Z,101782.50
2022-09-22T20:56:04.711Z,101770.56
2022-09-22T21:03:06.347Z,101776.31
2022-09-22T21:10:27.231Z,101789.00
2022-09-22T21:17:29.669Z,101783.06
2022-09-22T21:24:32.471Z,101780.00
2022-09-22T21:31:34.829Z,101777.03
2022-09-22T21:38:37.002Z,101775.88
2022-09-22T21:45:38.564Z,101780.06
2022-09-22T21:52:40.131Z,101784.13
2022-09-22T21:59:41.729Z,101784.56
2022-09-22T22:06:46.069Z,101777.91
2022-09-22T22:13:48.224Z,101783.84
2022-09-22T22:21:05.768Z,101784.19
2022-09-22T22:28:08.549Z,101778.28
2022-09-22T22:35:11.596Z,101772.41
2022-09-22T22:42:13.301Z,101771.09
2022-09-22T22:49:14.959Z,101775.25
2022-09-22T22:56:17.891Z,101771.28
2022-09-22T23:03:19.459Z,101770.91
2022-09-22T23:10:21.395Z,101774.84
2022-09-22T23:17:22.943Z,101777.97
2022-09-22T23:24:24.558Z,101772.16
2022-09-22T23:31:26.263Z,101762.66
2022-09-22T23:38:29.295Z,101753.13
2022-09-22T23:45:30.867Z,101746.28
2022-09-22T23:52:32.412Z,101744.78
2022-09-22T23:59:33.981Z,101739.53
